Indianapolis, Indiana
Traffic Map
Current Weather Conditions
Indianapolis, Indiana
Broken Clouds
Broken Clouds
79°
Feels Like: 80°
Wind Chill: 79° Ceiling: 18000
Heat Index: 80° Visibility: 10mi
Dew Point: 59° Wind: 6mph
Humidity: 50% Direction: 110° (ESE)
Pressure: 30.07in Gusts: 0mph
Raw Report DataKIND 051854Z 11005KT 10SM SCT050 BKN180 26/15 A3007 RMK AO2 SLP178 T02610150
Traffic Incident Summary
Active as of:
Severity:
Category:
InformationThere was an issue retrieving the traffic information for this location. Please try a different location or try again shortly.
Advertisements
Track Severe Weather on mobile